L Anse, Michigan
Current Conditions -  °F | °C
As of 6:53 AM on Saturday 25 Oct 2014 (Local Time) from KCMX Reporting Station
Clear Clear  
Wind Chill: 54°   Ceiling: Unl
Heat Index: 54°   Visibility: 10mi
Dew Point: 34°   Wind: 29mph
Humidity: 47%   Direction: 280°W
Pressure: 29.67"   Gusts: 36mph
Location:  46.7277°N, 88.2881°W
Report Text: KCMX 251053Z AUTO 28025G31KT 10SM CLR 12/01 A2967 RMK AO2 PK WND 28031/1050 SLP049 T01220011
Loading
Personal Weather Stations






























Interactive Weather Map
Tropical Storm Tracking
New forecast layout! Learn more

10-Day Weather Forecast

Advertisements
Track Severe Weather on mobile